sensor_id;sensor_type;location;lat;lon;timestamp;P1;durP1;ratioP1;P2;durP2;ratioP2
15402;SDS011;7799;53.478;10.170;2022-08-04T00:02:08;1.53;;;0.40;;
15402;SDS011;7799;53.478;10.170;2022-08-04T00:04:38;0.50;;;0.40;;
15402;SDS011;7799;53.478;10.170;2022-08-04T00:07:12;0.87;;;0.30;;
15402;SDS011;7799;53.478;10.170;2022-08-04T00:09:43;0.40;;;0.30;;
15402;SDS011;7799;53.478;10.170;2022-08-04T00:12:13;0.40;;;0.30;;
15402;SDS011;7799;53.478;10.170;2022-08-04T00:14:46;0.40;;;0.30;;
15402;SDS011;7799;53.478;10.170;2022-08-04T00:17:13;0.40;;;0.40;;
15402;SDS011;7799;53.478;10.170;2022-08-04T00:19:46;0.73;;;0.50;;
15402;SDS011;7799;53.478;10.170;2022-08-04T00:22:13;0.30;;;0.30;;
15402;SDS011;7799;53.478;10.170;2022-08-04T00:24:43;0.53;;;0.23;;
15402;SDS011;7799;53.478;10.170;2022-08-04T00:27:10;0.40;;;0.40;;
15402;SDS011;7799;53.478;10.170;2022-08-04T00:29:38;0.80;;;0.30;;
15402;SDS011;7799;53.478;10.170;2022-08-04T00:32:07;0.40;;;0.30;;
15402;SDS011;7799;53.478;10.170;2022-08-04T00:34:34;0.33;;;0.30;;
15402;SDS011;7799;53.478;10.170;2022-08-04T00:37:01;1.03;;;0.50;;
15402;SDS011;7799;53.478;10.170;2022-08-04T00:39:30;0.30;;;0.30;;
15402;SDS011;7799;53.478;10.170;2022-08-04T00:44:59;0.30;;;0.30;;
15402;SDS011;7799;53.478;10.170;2022-08-04T00:47:40;0.40;;;0.37;;
15402;SDS011;7799;53.478;10.170;2022-08-04T00:50:17;0.27;;;0.27;;
15402;SDS011;7799;53.478;10.170;2022-08-04T00:52:53;0.33;;;0.30;;
15402;SDS011;7799;53.478;10.170;2022-08-04T00:55:33;0.97;;;0.40;;
15402;SDS011;7799;53.478;10.170;2022-08-04T00:58:16;0.90;;;0.30;;
15402;SDS011;7799;53.478;10.170;2022-08-04T01:00:51;0.50;;;0.33;;
15402;SDS011;7799;53.478;10.170;2022-08-04T01:03:28;0.30;;;0.30;;
15402;SDS011;7799;53.478;10.170;2022-08-04T01:06:04;0.90;;;0.50;;
15402;SDS011;7799;53.478;10.170;2022-08-04T01:08:39;0.20;;;0.20;;
15402;SDS011;7799;53.478;10.170;2022-08-04T01:11:20;0.53;;;0.33;;
15402;SDS011;7799;53.478;10.170;2022-08-04T01:13:55;0.30;;;0.30;;
15402;SDS011;7799;53.478;10.170;2022-08-04T01:16:29;0.40;;;0.30;;
15402;SDS011;7799;53.478;10.170;2022-08-04T01:18:59;0.53;;;0.30;;
15402;SDS011;7799;53.478;10.170;2022-08-04T01:21:37;0.40;;;0.40;;
15402;SDS011;7799;53.478;10.170;2022-08-04T01:24:18;0.43;;;0.30;;
15402;SDS011;7799;53.478;10.170;2022-08-04T01:26:52;0.67;;;0.40;;
15402;SDS011;7799;53.478;10.170;2022-08-04T01:29:23;0.20;;;0.20;;
15402;SDS011;7799;53.478;10.170;2022-08-04T01:32:02;0.40;;;0.40;;
15402;SDS011;7799;53.478;10.170;2022-08-04T01:34:30;0.20;;;0.20;;
15402;SDS011;7799;53.478;10.170;2022-08-04T01:37:07;0.70;;;0.30;;
15402;SDS011;7799;53.478;10.170;2022-08-04T01:39:37;0.80;;;0.27;;
15402;SDS011;7799;53.478;10.170;2022-08-04T01:42:10;0.30;;;0.30;;
15402;SDS011;7799;53.478;10.170;2022-08-04T01:44:39;0.40;;;0.40;;
15402;SDS011;7799;53.478;10.170;2022-08-04T01:47:08;0.30;;;0.30;;
15402;SDS011;7799;53.478;10.170;2022-08-04T01:49:36;0.40;;;0.40;;
15402;SDS011;7799;53.478;10.170;2022-08-04T01:52:03;0.30;;;0.30;;
15402;SDS011;7799;53.478;10.170;2022-08-04T01:54:31;0.60;;;0.60;;
15402;SDS011;7799;53.478;10.170;2022-08-04T01:56:59;0.30;;;0.30;;
15402;SDS011;7799;53.478;10.170;2022-08-04T01:59:30;0.50;;;0.30;;
15402;SDS011;7799;53.478;10.170;2022-08-04T02:01:58;0.50;;;0.30;;
15402;SDS011;7799;53.478;10.170;2022-08-04T02:04:25;0.47;;;0.47;;
15402;SDS011;7799;53.478;10.170;2022-08-04T02:06:56;0.40;;;0.33;;
15402;SDS011;7799;53.478;10.170;2022-08-04T02:09:29;0.40;;;0.40;;
15402;SDS011;7799;53.478;10.170;2022-08-04T02:12:04;0.60;;;0.30;;
15402;SDS011;7799;53.478;10.170;2022-08-04T02:14:37;1.30;;;0.60;;
15402;SDS011;7799;53.478;10.170;2022-08-04T02:17:10;0.30;;;0.30;;
15402;SDS011;7799;53.478;10.170;2022-08-04T02:19:44;0.27;;;0.27;;
15402;SDS011;7799;53.478;10.170;2022-08-04T02:22:17;0.33;;;0.33;;
15402;SDS011;7799;53.478;10.170;2022-08-04T02:24:45;0.87;;;0.50;;
15402;SDS011;7799;53.478;10.170;2022-08-04T02:27:14;0.33;;;0.30;;
15402;SDS011;7799;53.478;10.170;2022-08-04T02:29:44;0.30;;;0.30;;
15402;SDS011;7799;53.478;10.170;2022-08-04T02:32:17;0.70;;;0.40;;
15402;SDS011;7799;53.478;10.170;2022-08-04T02:34:47;0.30;;;0.30;;
15402;SDS011;7799;53.478;10.170;2022-08-04T02:37:18;0.37;;;0.37;;
15402;SDS011;7799;53.478;10.170;2022-08-04T02:39:46;0.30;;;0.30;;
15402;SDS011;7799;53.478;10.170;2022-08-04T02:42:15;0.40;;;0.40;;
15402;SDS011;7799;53.478;10.170;2022-08-04T02:44:42;0.50;;;0.50;;
15402;SDS011;7799;53.478;10.170;2022-08-04T02:47:12;0.50;;;0.50;;
15402;SDS011;7799;53.478;10.170;2022-08-04T02:49:40;0.50;;;0.50;;
15402;SDS011;7799;53.478;10.170;2022-08-04T02:52:07;0.60;;;0.50;;
15402;SDS011;7799;53.478;10.170;2022-08-04T02:54:38;0.50;;;0.40;;
15402;SDS011;7799;53.478;10.170;2022-08-04T02:57:06;0.87;;;0.33;;
15402;SDS011;7799;53.478;10.170;2022-08-04T02:59:44;0.40;;;0.40;;
15402;SDS011;7799;53.478;10.170;2022-08-04T03:02:19;0.60;;;0.40;;
15402;SDS011;7799;53.478;10.170;2022-08-04T03:04:55;0.43;;;0.40;;
15402;SDS011;7799;53.478;10.170;2022-08-04T03:07:28;0.33;;;0.27;;
15402;SDS011;7799;53.478;10.170;2022-08-04T03:16:00;0.40;;;0.40;;
15402;SDS011;7799;53.478;10.170;2022-08-04T03:18:47;0.30;;;0.30;;
15402;SDS011;7799;53.478;10.170;2022-08-04T03:21:45;0.30;;;0.30;;
15402;SDS011;7799;53.478;10.170;2022-08-04T03:27:32;0.30;;;0.30;;
15402;SDS011;7799;53.478;10.170;2022-08-04T03:30:23;0.40;;;0.40;;
15402;SDS011;7799;53.478;10.170;2022-08-04T03:36:15;0.30;;;0.30;;
15402;SDS011;7799;53.478;10.170;2022-08-04T03:39:12;0.53;;;0.53;;
15402;SDS011;7799;53.478;10.170;2022-08-04T03:45:14;0.97;;;0.50;;
15402;SDS011;7799;53.478;10.170;2022-08-04T03:48:19;0.50;;;0.40;;
15402;SDS011;7799;53.478;10.170;2022-08-04T03:51:06;0.60;;;0.40;;
15402;SDS011;7799;53.478;10.170;2022-08-04T03:57:07;1.00;;;0.50;;
15402;SDS011;7799;53.478;10.170;2022-08-04T03:59:55;0.30;;;0.30;;
15402;SDS011;7799;53.478;10.170;2022-08-04T04:05:40;0.83;;;0.50;;
15402;SDS011;7799;53.478;10.170;2022-08-04T04:08:27;1.50;;;0.90;;
15402;SDS011;7799;53.478;10.170;2022-08-04T04:11:17;1.17;;;0.73;;
15402;SDS011;7799;53.478;10.170;2022-08-04T04:13:54;0.80;;;0.70;;
15402;SDS011;7799;53.478;10.170;2022-08-04T04:16:37;0.73;;;0.70;;
15402;SDS011;7799;53.478;10.170;2022-08-04T04:19:28;1.00;;;0.90;;
15402;SDS011;7799;53.478;10.170;2022-08-04T04:22:16;1.17;;;0.73;;
15402;SDS011;7799;53.478;10.170;2022-08-04T04:27:46;1.67;;;0.80;;
15402;SDS011;7799;53.478;10.170;2022-08-04T04:30:18;1.47;;;0.80;;
15402;SDS011;7799;53.478;10.170;2022-08-04T04:32:55;1.80;;;0.73;;
15402;SDS011;7799;53.478;10.170;2022-08-04T04:35:36;1.03;;;0.60;;
15402;SDS011;7799;53.478;10.170;2022-08-04T04:40:57;0.57;;;0.53;;
15402;SDS011;7799;53.478;10.170;2022-08-04T04:46:31;0.80;;;0.70;;
15402;SDS011;7799;53.478;10.170;2022-08-04T04:49:04;0.80;;;0.67;;
15402;SDS011;7799;53.478;10.170;2022-08-04T04:51:37;0.80;;;0.57;;
15402;SDS011;7799;53.478;10.170;2022-08-04T04:54:10;0.80;;;0.70;;
15402;SDS011;7799;53.478;10.170;2022-08-04T04:56:40;1.63;;;0.80;;
15402;SDS011;7799;53.478;10.170;2022-08-04T04:59:14;1.27;;;0.70;;
15402;SDS011;7799;53.478;10.170;2022-08-04T05:01:53;0.80;;;0.70;;
15402;SDS011;7799;53.478;10.170;2022-08-04T05:04:36;0.87;;;0.80;;
15402;SDS011;7799;53.478;10.170;2022-08-04T05:07:30;1.50;;;0.70;;
15402;SDS011;7799;53.478;10.170;2022-08-04T05:10:10;1.03;;;1.03;;
15402;SDS011;7799;53.478;10.170;2022-08-04T05:12:51;1.17;;;1.07;;
15402;SDS011;7799;53.478;10.170;2022-08-04T05:15:31;1.20;;;1.10;;
15402;SDS011;7799;53.478;10.170;2022-08-04T05:18:00;1.00;;;1.00;;
15402;SDS011;7799;53.478;10.170;2022-08-04T05:20:28;0.70;;;0.70;;
15402;SDS011;7799;53.478;10.170;2022-08-04T05:23:01;1.50;;;1.00;;
15402;SDS011;7799;53.478;10.170;2022-08-04T05:25:31;1.10;;;1.00;;
15402;SDS011;7799;53.478;10.170;2022-08-04T05:28:01;0.90;;;0.90;;
15402;SDS011;7799;53.478;10.170;2022-08-04T05:30:33;1.43;;;1.03;;
15402;SDS011;7799;53.478;10.170;2022-08-04T05:33:03;1.97;;;1.47;;
15402;SDS011;7799;53.478;10.170;2022-08-04T05:35:33;1.50;;;1.40;;
15402;SDS011;7799;53.478;10.170;2022-08-04T05:38:02;1.30;;;1.20;;
15402;SDS011;7799;53.478;10.170;2022-08-04T05:40:29;1.10;;;1.00;;
15402;SDS011;7799;53.478;10.170;2022-08-04T05:42:56;2.33;;;1.07;;
15402;SDS011;7799;53.478;10.170;2022-08-04T05:45:24;0.60;;;0.60;;
15402;SDS011;7799;53.478;10.170;2022-08-04T05:47:53;0.93;;;0.80;;
15402;SDS011;7799;53.478;10.170;2022-08-04T05:50:20;1.50;;;0.80;;
15402;SDS011;7799;53.478;10.170;2022-08-04T05:52:47;2.37;;;1.27;;
15402;SDS011;7799;53.478;10.170;2022-08-04T05:55:15;1.20;;;1.10;;
15402;SDS011;7799;53.478;10.170;2022-08-04T05:57:42;1.07;;;0.77;;
15402;SDS011;7799;53.478;10.170;2022-08-04T06:00:12;0.90;;;0.77;;
15402;SDS011;7799;53.478;10.170;2022-08-04T06:02:39;1.50;;;0.70;;
15402;SDS011;7799;53.478;10.170;2022-08-04T06:05:10;1.20;;;0.63;;
15402;SDS011;7799;53.478;10.170;2022-08-04T06:07:38;0.97;;;0.87;;
15402;SDS011;7799;53.478;10.170;2022-08-04T06:10:05;1.13;;;0.80;;
15402;SDS011;7799;53.478;10.170;2022-08-04T06:12:35;0.77;;;0.60;;
15402;SDS011;7799;53.478;10.170;2022-08-04T06:15:04;1.10;;;0.90;;
15402;SDS011;7799;53.478;10.170;2022-08-04T06:17:35;0.73;;;0.73;;
15402;SDS011;7799;53.478;10.170;2022-08-04T06:20:04;0.60;;;0.60;;
15402;SDS011;7799;53.478;10.170;2022-08-04T06:22:34;0.90;;;0.73;;
15402;SDS011;7799;53.478;10.170;2022-08-04T06:25:06;0.70;;;0.70;;
15402;SDS011;7799;53.478;10.170;2022-08-04T06:27:34;1.00;;;0.90;;
15402;SDS011;7799;53.478;10.170;2022-08-04T06:30:02;1.10;;;1.00;;
15402;SDS011;7799;53.478;10.170;2022-08-04T06:32:31;2.37;;;1.17;;
15402;SDS011;7799;53.478;10.170;2022-08-04T06:35:11;1.90;;;1.20;;
15402;SDS011;7799;53.478;10.170;2022-08-04T06:37:41;1.43;;;1.00;;
15402;SDS011;7799;53.478;10.170;2022-08-04T06:40:09;1.57;;;1.30;;
15402;SDS011;7799;53.478;10.170;2022-08-04T06:42:36;2.13;;;1.37;;
15402;SDS011;7799;53.478;10.170;2022-08-04T06:45:03;1.57;;;1.03;;
15402;SDS011;7799;53.478;10.170;2022-08-04T06:47:31;1.83;;;1.13;;
15402;SDS011;7799;53.478;10.170;2022-08-04T06:49:58;1.93;;;0.87;;
15402;SDS011;7799;53.478;10.170;2022-08-04T06:52:25;2.10;;;1.30;;
15402;SDS011;7799;53.478;10.170;2022-08-04T06:54:53;1.90;;;1.47;;
15402;SDS011;7799;53.478;10.170;2022-08-04T06:57:21;3.20;;;1.43;;
15402;SDS011;7799;53.478;10.170;2022-08-04T06:59:50;1.40;;;1.30;;
15402;SDS011;7799;53.478;10.170;2022-08-04T07:02:21;1.93;;;1.20;;
15402;SDS011;7799;53.478;10.170;2022-08-04T07:04:50;1.50;;;1.40;;
15402;SDS011;7799;53.478;10.170;2022-08-04T07:07:17;1.43;;;1.33;;
15402;SDS011;7799;53.478;10.170;2022-08-04T07:09:43;1.53;;;1.40;;
15402;SDS011;7799;53.478;10.170;2022-08-04T07:12:12;1.53;;;1.17;;
15402;SDS011;7799;53.478;10.170;2022-08-04T07:14:39;1.57;;;1.17;;
15402;SDS011;7799;53.478;10.170;2022-08-04T07:17:07;1.87;;;1.00;;
15402;SDS011;7799;53.478;10.170;2022-08-04T07:19:34;1.57;;;1.30;;
15402;SDS011;7799;53.478;10.170;2022-08-04T07:22:02;1.58;;;0.98;;
15402;SDS011;7799;53.478;10.170;2022-08-04T07:24:29;1.98;;;1.40;;
15402;SDS011;7799;53.478;10.170;2022-08-04T07:26:56;1.30;;;1.20;;
15402;SDS011;7799;53.478;10.170;2022-08-04T07:29:24;2.00;;;1.30;;
15402;SDS011;7799;53.478;10.170;2022-08-04T07:31:51;1.25;;;1.15;;
15402;SDS011;7799;53.478;10.170;2022-08-04T07:34:18;3.05;;;1.20;;
15402;SDS011;7799;53.478;10.170;2022-08-04T07:36:45;2.30;;;1.38;;
15402;SDS011;7799;53.478;10.170;2022-08-04T07:39:12;2.30;;;1.23;;
15402;SDS011;7799;53.478;10.170;2022-08-04T07:41:39;1.67;;;1.20;;
15402;SDS011;7799;53.478;10.170;2022-08-04T07:44:07;1.30;;;1.17;;
15402;SDS011;7799;53.478;10.170;2022-08-04T07:46:35;1.17;;;1.08;;
15402;SDS011;7799;53.478;10.170;2022-08-04T07:49:02;1.63;;;1.20;;
15402;SDS011;7799;53.478;10.170;2022-08-04T07:51:30;1.48;;;1.13;;
15402;SDS011;7799;53.478;10.170;2022-08-04T07:53:57;0.80;;;0.80;;
15402;SDS011;7799;53.478;10.170;2022-08-04T07:56:24;2.92;;;1.30;;
15402;SDS011;7799;53.478;10.170;2022-08-04T07:58:51;1.50;;;1.30;;
15402;SDS011;7799;53.478;10.170;2022-08-04T08:01:17;2.53;;;1.38;;
15402;SDS011;7799;53.478;10.170;2022-08-04T08:03:45;1.20;;;1.10;;
15402;SDS011;7799;53.478;10.170;2022-08-04T08:06:12;1.50;;;1.20;;
15402;SDS011;7799;53.478;10.170;2022-08-04T08:08:39;2.22;;;1.45;;
15402;SDS011;7799;53.478;10.170;2022-08-04T08:11:06;2.53;;;1.75;;
15402;SDS011;7799;53.478;10.170;2022-08-04T08:13:33;1.80;;;1.70;;
15402;SDS011;7799;53.478;10.170;2022-08-04T08:16:00;1.95;;;1.75;;
15402;SDS011;7799;53.478;10.170;2022-08-04T08:18:28;1.83;;;1.65;;
15402;SDS011;7799;53.478;10.170;2022-08-04T08:20:56;2.08;;;1.50;;
15402;SDS011;7799;53.478;10.170;2022-08-04T08:23:23;1.80;;;1.15;;
15402;SDS011;7799;53.478;10.170;2022-08-04T08:25:49;3.13;;;1.35;;
15402;SDS011;7799;53.478;10.170;2022-08-04T08:28:16;2.33;;;1.35;;
15402;SDS011;7799;53.478;10.170;2022-08-04T08:30:43;2.80;;;1.30;;
15402;SDS011;7799;53.478;10.170;2022-08-04T08:33:10;1.95;;;1.38;;
15402;SDS011;7799;53.478;10.170;2022-08-04T08:35:41;1.20;;;1.13;;
15402;SDS011;7799;53.478;10.170;2022-08-04T08:38:14;3.05;;;1.38;;
15402;SDS011;7799;53.478;10.170;2022-08-04T08:40:45;1.48;;;1.23;;
15402;SDS011;7799;53.478;10.170;2022-08-04T08:43:25;1.38;;;1.10;;
15402;SDS011;7799;53.478;10.170;2022-08-04T08:49:23;2.25;;;1.30;;
15402;SDS011;7799;53.478;10.170;2022-08-04T08:52:15;2.00;;;1.52;;
15402;SDS011;7799;53.478;10.170;2022-08-04T08:54:55;2.90;;;1.67;;
15402;SDS011;7799;53.478;10.170;2022-08-04T08:57:30;1.98;;;1.50;;
15402;SDS011;7799;53.478;10.170;2022-08-04T09:00:12;4.00;;;1.55;;
15402;SDS011;7799;53.478;10.170;2022-08-04T09:02:58;1.88;;;1.50;;
15402;SDS011;7799;53.478;10.170;2022-08-04T09:05:41;1.55;;;1.20;;
15402;SDS011;7799;53.478;10.170;2022-08-04T09:08:16;1.27;;;1.17;;
15402;SDS011;7799;53.478;10.170;2022-08-04T09:10:50;1.95;;;1.20;;
15402;SDS011;7799;53.478;10.170;2022-08-04T09:13:20;2.00;;;1.30;;
15402;SDS011;7799;53.478;10.170;2022-08-04T09:15:53;1.48;;;1.38;;
15402;SDS011;7799;53.478;10.170;2022-08-04T09:18:24;1.85;;;1.30;;
15402;SDS011;7799;53.478;10.170;2022-08-04T09:20:55;1.60;;;1.30;;
15402;SDS011;7799;53.478;10.170;2022-08-04T09:23:27;2.88;;;1.48;;
15402;SDS011;7799;53.478;10.170;2022-08-04T09:26:01;1.67;;;1.58;;
15402;SDS011;7799;53.478;10.170;2022-08-04T09:28:34;1.58;;;1.45;;
15402;SDS011;7799;53.478;10.170;2022-08-04T09:31:08;2.05;;;1.45;;
15402;SDS011;7799;53.478;10.170;2022-08-04T09:33:41;1.30;;;1.20;;
15402;SDS011;7799;53.478;10.170;2022-08-04T09:36:13;1.30;;;1.20;;
15402;SDS011;7799;53.478;10.170;2022-08-04T09:39:02;1.55;;;1.45;;
15402;SDS011;7799;53.478;10.170;2022-08-04T09:41:37;3.60;;;1.63;;
15402;SDS011;7799;53.478;10.170;2022-08-04T09:44:13;1.77;;;1.67;;
15402;SDS011;7799;53.478;10.170;2022-08-04T09:46:45;1.77;;;1.50;;
15402;SDS011;7799;53.478;10.170;2022-08-04T09:49:18;1.55;;;1.45;;
15402;SDS011;7799;53.478;10.170;2022-08-04T09:51:49;2.13;;;1.52;;
15402;SDS011;7799;53.478;10.170;2022-08-04T09:54:24;1.52;;;1.38;;
15402;SDS011;7799;53.478;10.170;2022-08-04T09:56:59;2.92;;;1.65;;
15402;SDS011;7799;53.478;10.170;2022-08-04T09:59:33;2.15;;;1.75;;
15402;SDS011;7799;53.478;10.170;2022-08-04T10:02:05;1.60;;;1.50;;
15402;SDS011;7799;53.478;10.170;2022-08-04T10:04:32;1.60;;;1.50;;
15402;SDS011;7799;53.478;10.170;2022-08-04T10:07:03;1.48;;;1.38;;
15402;SDS011;7799;53.478;10.170;2022-08-04T10:09:51;1.33;;;1.23;;
15402;SDS011;7799;53.478;10.170;2022-08-04T10:12:30;1.30;;;1.20;;
15402;SDS011;7799;53.478;10.170;2022-08-04T10:15:03;1.30;;;1.20;;
15402;SDS011;7799;53.478;10.170;2022-08-04T10:17:38;2.85;;;1.70;;
15402;SDS011;7799;53.478;10.170;2022-08-04T10:20:11;1.73;;;1.60;;
15402;SDS011;7799;53.478;10.170;2022-08-04T10:22:45;1.50;;;1.40;;
15402;SDS011;7799;53.478;10.170;2022-08-04T10:25:23;1.52;;;1.42;;
15402;SDS011;7799;53.478;10.170;2022-08-04T10:27:58;1.70;;;1.60;;
15402;SDS011;7799;53.478;10.170;2022-08-04T10:30:26;2.08;;;1.50;;
15402;SDS011;7799;53.478;10.170;2022-08-04T10:32:57;1.65;;;1.55;;
15402;SDS011;7799;53.478;10.170;2022-08-04T10:35:32;1.60;;;1.50;;
15402;SDS011;7799;53.478;10.170;2022-08-04T10:38:13;1.80;;;1.48;;
15402;SDS011;7799;53.478;10.170;2022-08-04T10:40:43;1.42;;;1.27;;
15402;SDS011;7799;53.478;10.170;2022-08-04T10:45:46;1.50;;;1.40;;
15402;SDS011;7799;53.478;10.170;2022-08-04T10:48:18;1.60;;;1.50;;
15402;SDS011;7799;53.478;10.170;2022-08-04T10:50:51;2.63;;;1.55;;
15402;SDS011;7799;53.478;10.170;2022-08-04T10:53:25;2.45;;;1.42;;
15402;SDS011;7799;53.478;10.170;2022-08-04T10:55:55;1.15;;;1.15;;
15402;SDS011;7799;53.478;10.170;2022-08-04T10:58:25;1.42;;;1.33;;
15402;SDS011;7799;53.478;10.170;2022-08-04T11:00:57;1.50;;;1.40;;
15402;SDS011;7799;53.478;10.170;2022-08-04T11:03:29;2.25;;;1.38;;
15402;SDS011;7799;53.478;10.170;2022-08-04T11:06:01;1.30;;;1.10;;
15402;SDS011;7799;53.478;10.170;2022-08-04T11:08:29;1.15;;;1.05;;
15402;SDS011;7799;53.478;10.170;2022-08-04T11:11:00;1.50;;;1.40;;
15402;SDS011;7799;53.478;10.170;2022-08-04T11:13:33;1.30;;;1.20;;
15402;SDS011;7799;53.478;10.170;2022-08-04T11:16:07;1.00;;;1.00;;
15402;SDS011;7799;53.478;10.170;2022-08-04T11:18:39;2.45;;;1.55;;
15402;SDS011;7799;53.478;10.170;2022-08-04T11:21:13;1.77;;;1.67;;
15402;SDS011;7799;53.478;10.170;2022-08-04T11:23:43;1.40;;;1.30;;
15402;SDS011;7799;53.478;10.170;2022-08-04T11:26:14;1.50;;;1.40;;
15402;SDS011;7799;53.478;10.170;2022-08-04T11:28:45;1.60;;;1.50;;
15402;SDS011;7799;53.478;10.170;2022-08-04T11:31:18;1.88;;;1.38;;
15402;SDS011;7799;53.478;10.170;2022-08-04T11:33:47;1.45;;;1.35;;
15402;SDS011;7799;53.478;10.170;2022-08-04T11:36:19;1.25;;;1.17;;
15402;SDS011;7799;53.478;10.170;2022-08-04T11:38:49;1.73;;;1.63;;
15402;SDS011;7799;53.478;10.170;2022-08-04T11:41:23;1.67;;;1.58;;
15402;SDS011;7799;53.478;10.170;2022-08-04T11:43:54;1.65;;;1.17;;
15402;SDS011;7799;53.478;10.170;2022-08-04T11:46:25;1.85;;;1.50;;
15402;SDS011;7799;53.478;10.170;2022-08-04T11:48:57;1.42;;;1.40;;
15402;SDS011;7799;53.478;10.170;2022-08-04T11:51:27;1.80;;;1.20;;
15402;SDS011;7799;53.478;10.170;2022-08-04T11:53:54;1.73;;;1.45;;
15402;SDS011;7799;53.478;10.170;2022-08-04T11:56:21;1.30;;;1.20;;
15402;SDS011;7799;53.478;10.170;2022-08-04T11:58:48;1.50;;;1.40;;
15402;SDS011;7799;53.478;10.170;2022-08-04T12:01:17;1.98;;;1.88;;
15402;SDS011;7799;53.478;10.170;2022-08-04T12:03:54;1.58;;;1.45;;
15402;SDS011;7799;53.478;10.170;2022-08-04T12:06:27;1.40;;;1.30;;
15402;SDS011;7799;53.478;10.170;2022-08-04T12:08:59;1.60;;;1.50;;
15402;SDS011;7799;53.478;10.170;2022-08-04T12:14:21;1.30;;;1.20;;
15402;SDS011;7799;53.478;10.170;2022-08-04T12:16:55;1.00;;;1.00;;
15402;SDS011;7799;53.478;10.170;2022-08-04T12:19:29;1.00;;;1.00;;
15402;SDS011;7799;53.478;10.170;2022-08-04T12:21:58;0.85;;;0.85;;
15402;SDS011;7799;53.478;10.170;2022-08-04T12:24:30;2.17;;;1.05;;
15402;SDS011;7799;53.478;10.170;2022-08-04T12:27:02;1.30;;;1.20;;
15402;SDS011;7799;53.478;10.170;2022-08-04T12:29:32;1.00;;;0.90;;
15402;SDS011;7799;53.478;10.170;2022-08-04T12:32:03;0.70;;;0.70;;
15402;SDS011;7799;53.478;10.170;2022-08-04T12:34:39;1.05;;;1.05;;
15402;SDS011;7799;53.478;10.170;2022-08-04T12:37:09;1.48;;;1.13;;
15402;SDS011;7799;53.478;10.170;2022-08-04T12:39:42;1.10;;;1.10;;
15402;SDS011;7799;53.478;10.170;2022-08-04T12:42:13;1.05;;;1.05;;
15402;SDS011;7799;53.478;10.170;2022-08-04T12:44:43;1.13;;;1.10;;
15402;SDS011;7799;53.478;10.170;2022-08-04T12:47:13;1.15;;;1.00;;
15402;SDS011;7799;53.478;10.170;2022-08-04T12:49:43;1.00;;;1.00;;
15402;SDS011;7799;53.478;10.170;2022-08-04T12:52:10;1.20;;;1.20;;
15402;SDS011;7799;53.478;10.170;2022-08-04T12:54:38;1.35;;;1.25;;
15402;SDS011;7799;53.478;10.170;2022-08-04T12:57:07;0.98;;;0.98;;
15402;SDS011;7799;53.478;10.170;2022-08-04T12:59:38;1.40;;;1.30;;
15402;SDS011;7799;53.478;10.170;2022-08-04T13:02:05;0.85;;;0.85;;
15402;SDS011;7799;53.478;10.170;2022-08-04T13:04:40;1.30;;;1.20;;
15402;SDS011;7799;53.478;10.170;2022-08-04T13:07:09;1.20;;;1.20;;
15402;SDS011;7799;53.478;10.170;2022-08-04T13:09:38;1.40;;;1.30;;
15402;SDS011;7799;53.478;10.170;2022-08-04T13:12:12;1.45;;;0.90;;
15402;SDS011;7799;53.478;10.170;2022-08-04T13:14:40;1.10;;;1.10;;
15402;SDS011;7799;53.478;10.170;2022-08-04T13:17:09;1.25;;;1.15;;
15402;SDS011;7799;53.478;10.170;2022-08-04T13:19:36;0.90;;;0.90;;
15402;SDS011;7799;53.478;10.170;2022-08-04T13:22:04;0.80;;;0.80;;
15402;SDS011;7799;53.478;10.170;2022-08-04T13:24:31;0.88;;;0.88;;
15402;SDS011;7799;53.478;10.170;2022-08-04T13:27:01;1.08;;;0.98;;
15402;SDS011;7799;53.478;10.170;2022-08-04T13:29:31;0.80;;;0.80;;
15402;SDS011;7799;53.478;10.170;2022-08-04T13:32:00;3.13;;;1.63;;
15402;SDS011;7799;53.478;10.170;2022-08-04T13:34:27;1.20;;;1.20;;
15402;SDS011;7799;53.478;10.170;2022-08-04T13:36:54;0.80;;;0.80;;
15402;SDS011;7799;53.478;10.170;2022-08-04T13:39:23;0.98;;;0.98;;
15402;SDS011;7799;53.478;10.170;2022-08-04T13:41:50;0.90;;;0.90;;
15402;SDS011;7799;53.478;10.170;2022-08-04T13:44:20;0.77;;;0.77;;
15402;SDS011;7799;53.478;10.170;2022-08-04T13:46:48;1.15;;;0.93;;
15402;SDS011;7799;53.478;10.170;2022-08-04T13:49:17;1.15;;;0.85;;
15402;SDS011;7799;53.478;10.170;2022-08-04T13:51:51;0.90;;;0.90;;
15402;SDS011;7799;53.478;10.170;2022-08-04T13:54:19;0.60;;;0.60;;
15402;SDS011;7799;53.478;10.170;2022-08-04T13:56:48;0.63;;;0.50;;
15402;SDS011;7799;53.478;10.170;2022-08-04T13:59:17;0.68;;;0.68;;
15402;SDS011;7799;53.478;10.170;2022-08-04T14:01:46;0.70;;;0.70;;
15402;SDS011;7799;53.478;10.170;2022-08-04T14:04:24;0.70;;;0.70;;
15402;SDS011;7799;53.478;10.170;2022-08-04T14:06:52;0.68;;;0.68;;
15402;SDS011;7799;53.478;10.170;2022-08-04T14:09:23;0.60;;;0.60;;
15402;SDS011;7799;53.478;10.170;2022-08-04T14:11:54;0.70;;;0.70;;
15402;SDS011;7799;53.478;10.170;2022-08-04T14:14:23;0.60;;;0.60;;
15402;SDS011;7799;53.478;10.170;2022-08-04T14:16:58;1.00;;;1.00;;
15402;SDS011;7799;53.478;10.170;2022-08-04T14:19:26;0.80;;;0.80;;
15402;SDS011;7799;53.478;10.170;2022-08-04T14:21:54;0.60;;;0.60;;
15402;SDS011;7799;53.478;10.170;2022-08-04T14:24:24;0.75;;;0.75;;
15402;SDS011;7799;53.478;10.170;2022-08-04T14:26:54;0.98;;;0.70;;
15402;SDS011;7799;53.478;10.170;2022-08-04T14:29:24;0.60;;;0.50;;
15402;SDS011;7799;53.478;10.170;2022-08-04T14:31:51;0.65;;;0.52;;
15402;SDS011;7799;53.478;10.170;2022-08-04T14:34:26;0.70;;;0.70;;
15402;SDS011;7799;53.478;10.170;2022-08-04T14:36:54;0.80;;;0.80;;
15402;SDS011;7799;53.478;10.170;2022-08-04T14:42:12;1.08;;;0.93;;
15402;SDS011;7799;53.478;10.170;2022-08-04T14:44:52;0.70;;;0.70;;
15402;SDS011;7799;53.478;10.170;2022-08-04T14:50:06;0.50;;;0.50;;
15402;SDS011;7799;53.478;10.170;2022-08-04T14:52:33;0.50;;;0.50;;
15402;SDS011;7799;53.478;10.170;2022-08-04T14:55:13;0.77;;;0.77;;
15402;SDS011;7799;53.478;10.170;2022-08-04T14:57:42;0.77;;;0.40;;
15402;SDS011;7799;53.478;10.170;2022-08-04T15:00:09;0.60;;;0.60;;
15402;SDS011;7799;53.478;10.170;2022-08-04T15:02:37;0.55;;;0.55;;
15402;SDS011;7799;53.478;10.170;2022-08-04T15:05:05;0.70;;;0.70;;
15402;SDS011;7799;53.478;10.170;2022-08-04T15:07:31;0.60;;;0.60;;
15402;SDS011;7799;53.478;10.170;2022-08-04T15:09:58;0.90;;;0.60;;
15402;SDS011;7799;53.478;10.170;2022-08-04T15:12:25;0.50;;;0.50;;
15402;SDS011;7799;53.478;10.170;2022-08-04T15:14:53;1.52;;;0.60;;
15402;SDS011;7799;53.478;10.170;2022-08-04T15:17:19;0.80;;;0.80;;
15402;SDS011;7799;53.478;10.170;2022-08-04T15:19:46;1.17;;;1.02;;
15402;SDS011;7799;53.478;10.170;2022-08-04T15:22:13;1.65;;;1.25;;
15402;SDS011;7799;53.478;10.170;2022-08-04T15:24:39;2.13;;;1.55;;
15402;SDS011;7799;53.478;10.170;2022-08-04T15:27:06;3.63;;;1.90;;
15402;SDS011;7799;53.478;10.170;2022-08-04T15:29:34;1.50;;;1.40;;
15402;SDS011;7799;53.478;10.170;2022-08-04T15:32:05;1.70;;;1.30;;
15402;SDS011;7799;53.478;10.170;2022-08-04T15:34:45;1.85;;;1.60;;
15402;SDS011;7799;53.478;10.170;2022-08-04T15:37:13;2.75;;;1.83;;
15402;SDS011;7799;53.478;10.170;2022-08-04T15:39:43;2.95;;;2.08;;
15402;SDS011;7799;53.478;10.170;2022-08-04T15:42:12;5.65;;;1.80;;
15402;SDS011;7799;53.478;10.170;2022-08-04T15:44:47;2.47;;;1.58;;
15402;SDS011;7799;53.478;10.170;2022-08-04T15:47:22;3.85;;;2.22;;
15402;SDS011;7799;53.478;10.170;2022-08-04T15:50:00;4.78;;;2.10;;
15402;SDS011;7799;53.478;10.170;2022-08-04T15:52:28;4.72;;;1.83;;
15402;SDS011;7799;53.478;10.170;2022-08-04T15:54:57;6.03;;;2.70;;
15402;SDS011;7799;53.478;10.170;2022-08-04T15:57:57;4.60;;;2.50;;
15402;SDS011;7799;53.478;10.170;2022-08-04T16:00:24;6.00;;;3.00;;
15402;SDS011;7799;53.478;10.170;2022-08-04T16:02:52;3.83;;;2.50;;
15402;SDS011;7799;53.478;10.170;2022-08-04T16:05:29;3.37;;;2.70;;